Time;durP1;ratioP1;P1;durP2;ratioP2;P2;SDS_P1;SDS_P2;PMS_P1;PMS_P2;Temp;Humidity;BMP_temperature;BMP_pressure;BME280_temperature;BME280_humidity;BME280_pressure;Samples;Min_cycle;Max_cycle;Signal;HPM_P1;HPM_P2
2023/05/16 00:01:48;;;;;;;7.60;6.30;;;;;;;;;;5028925;28;20191;-59
2023/05/16 00:04:16;;;;;;;7.80;6.77;;;;;;;;;;5030748;28;20290;-59
2023/05/16 00:06:43;;;;;;;7.80;6.67;;;;;;;;;;5030084;28;20192;-59
2023/05/16 00:09:09;;;;;;;7.90;6.90;;;;;;;;;;5029301;28;20367;-59
2023/05/16 00:11:36;;;;;;;6.97;6.00;;;;;;;;;;5029050;28;20638;-59
2023/05/16 00:14:04;;;;;;;6.37;5.77;;;;;;;;;;5028779;28;20188;-60
2023/05/16 00:16:30;;;;;;;6.07;5.47;;;;;;;;;;5028506;28;20196;-59
2023/05/16 00:18:58;;;;;;;7.40;6.07;;;;;;;;;;5029079;28;20196;-60
2023/05/16 00:21:25;;;;;;;6.73;5.70;;;;;;;;;;5029880;28;20194;-59
2023/05/16 00:23:51;;;;;;;5.73;4.97;;;;;;;;;;5029364;28;20231;-59
2023/05/16 00:26:18;;;;;;;6.23;5.37;;;;;;;;;;5028744;28;20207;-59
2023/05/16 00:28:45;;;;;;;5.90;5.30;;;;;;;;;;5029740;28;20192;-59
2023/05/16 00:31:11;;;;;;;5.67;5.13;;;;;;;;;;5029633;28;20215;-59
2023/05/16 00:33:38;;;;;;;6.00;5.20;;;;;;;;;;5018780;28;20199;-59
2023/05/16 00:36:06;;;;;;;5.80;5.20;;;;;;;;;;5028175;28;20563;-64
2023/05/16 00:38:32;;;;;;;5.50;5.00;;;;;;;;;;5027357;28;20196;-59
2023/05/16 00:40:59;;;;;;;7.37;5.73;;;;;;;;;;5011543;28;20195;-59
2023/05/16 00:43:26;;;;;;;6.73;5.67;;;;;;;;;;5042424;28;20580;-59
2023/05/16 00:45:53;;;;;;;6.57;5.90;;;;;;;;;;5010476;28;20291;-60
2023/05/16 00:48:20;;;;;;;8.10;5.90;;;;;;;;;;5030281;28;20198;-59
2023/05/16 00:50:48;;;;;;;7.77;6.10;;;;;;;;;;5011466;28;20670;-59
2023/05/16 00:53:15;;;;;;;5.70;5.20;;;;;;;;;;5028607;28;20732;-59
2023/05/16 00:55:42;;;;;;;5.80;5.30;;;;;;;;;;5027705;28;20230;-58
2023/05/16 00:58:10;;;;;;;5.77;5.17;;;;;;;;;;5032226;28;20203;-59
2023/05/16 01:00:36;;;;;;;6.47;5.40;;;;;;;;;;5028178;28;20191;-59
2023/05/16 01:03:06;;;;;;;5.87;5.10;;;;;;;;;;5029161;28;20544;-59
2023/05/16 01:05:33;;;;;;;6.23;5.63;;;;;;;;;;5010307;28;20219;-59
2023/05/16 01:07:59;;;;;;;7.40;6.53;;;;;;;;;;5012221;28;20246;-59
2023/05/16 01:10:29;;;;;;;6.97;6.27;;;;;;;;;;5011207;28;20195;-59
2023/05/16 01:13:02;;;;;;;7.00;6.30;;;;;;;;;;5003179;28;20223;-61
2023/05/16 01:15:34;;;;;;;7.13;6.13;;;;;;;;;;5009745;28;20294;-59
2023/05/16 01:18:27;;;;;;;6.93;6.23;;;;;;;;;;5011412;28;20195;-59
2023/05/16 01:21:02;;;;;;;8.00;7.20;;;;;;;;;;5014236;28;20191;-60
2023/05/16 01:23:39;;;;;;;8.80;7.90;;;;;;;;;;5044588;28;20697;-60
2023/05/16 01:26:12;;;;;;;9.10;7.00;;;;;;;;;;5027381;28;20202;-60
2023/05/16 01:28:40;;;;;;;8.63;7.73;;;;;;;;;;5025276;28;20600;-60
2023/05/16 01:31:06;;;;;;;7.63;6.83;;;;;;;;;;5010948;28;20184;-60
2023/05/16 01:33:33;;;;;;;8.47;7.57;;;;;;;;;;5028816;28;20194;-59
2023/05/16 01:36:10;;;;;;;9.33;8.00;;;;;;;;;;5027559;28;20585;-60
2023/05/16 01:38:43;;;;;;;8.60;7.53;;;;;;;;;;5039890;28;20202;-59
2023/05/16 01:41:20;;;;;;;11.20;8.20;;;;;;;;;;5010425;28;20264;-59
2023/05/16 02:16:04;;;;;;;9.27;8.37;;;;;;;;;;5028057;28;20182;-59
2023/05/16 02:18:33;;;;;;;9.80;8.03;;;;;;;;;;5037259;28;20230;-59
2023/05/16 02:21:00;;;;;;;10.00;8.67;;;;;;;;;;5030672;28;20227;-59
2023/05/16 02:23:30;;;;;;;9.77;8.77;;;;;;;;;;5030428;28;20306;-59
2023/05/16 02:25:58;;;;;;;10.40;8.67;;;;;;;;;;5030509;28;20626;-59
2023/05/16 02:28:25;;;;;;;9.37;8.47;;;;;;;;;;5032251;28;20218;-60
2023/05/16 02:30:55;;;;;;;11.13;9.10;;;;;;;;;;5031457;28;20223;-59
2023/05/16 02:33:22;;;;;;;9.97;8.97;;;;;;;;;;5031677;28;20331;-59
2023/05/16 02:35:49;;;;;;;10.73;9.30;;;;;;;;;;5031545;28;20689;-59
2023/05/16 02:38:16;;;;;;;9.90;8.90;;;;;;;;;;5031705;28;20603;-59
2023/05/16 02:40:43;;;;;;;10.30;9.20;;;;;;;;;;5031213;28;20221;-59
2023/05/16 02:43:09;;;;;;;10.63;9.13;;;;;;;;;;5012762;28;20286;-59
2023/05/16 02:45:36;;;;;;;10.60;9.27;;;;;;;;;;5031838;28;20188;-59
2023/05/16 02:48:03;;;;;;;10.30;9.27;;;;;;;;;;5012906;28;20192;-59
2023/05/16 02:50:30;;;;;;;10.30;8.60;;;;;;;;;;5029860;28;20249;-59
2023/05/16 02:52:58;;;;;;;10.43;8.70;;;;;;;;;;5031135;28;20226;-59
2023/05/16 02:55:25;;;;;;;10.40;9.20;;;;;;;;;;5031002;28;20219;-59
2023/05/16 02:57:51;;;;;;;11.70;9.73;;;;;;;;;;5025357;28;20196;-59
2023/05/16 03:00:18;;;;;;;9.70;8.40;;;;;;;;;;5052296;28;20178;-59
2023/05/16 03:02:45;;;;;;;12.80;8.83;;;;;;;;;;5042806;28;20195;-59
2023/05/16 03:05:12;;;;;;;9.80;8.80;;;;;;;;;;5032074;28;20206;-59
2023/05/16 03:07:40;;;;;;;9.30;8.30;;;;;;;;;;5031759;28;20643;-60
2023/05/16 03:10:06;;;;;;;9.03;8.13;;;;;;;;;;5032297;28;20257;-59
2023/05/16 03:12:33;;;;;;;9.57;8.37;;;;;;;;;;5031814;28;20261;-59
2023/05/16 03:15:00;;;;;;;10.97;8.40;;;;;;;;;;5041476;28;20222;-60
2023/05/16 03:17:28;;;;;;;9.17;7.60;;;;;;;;;;5031891;28;20245;-60
2023/05/16 03:19:55;;;;;;;7.30;6.43;;;;;;;;;;5013368;28;20241;-59
2023/05/16 03:22:23;;;;;;;5.50;5.00;;;;;;;;;;5031772;28;20171;-60
2023/05/16 03:24:50;;;;;;;5.43;4.47;;;;;;;;;;5041866;28;20219;-60
2023/05/16 03:27:17;;;;;;;4.60;4.20;;;;;;;;;;5029238;28;20279;-59
2023/05/16 03:29:43;;;;;;;3.90;3.50;;;;;;;;;;5031708;28;20222;-60
2023/05/16 03:32:11;;;;;;;3.63;3.33;;;;;;;;;;5012841;28;20237;-59
2023/05/16 03:34:38;;;;;;;2.80;2.60;;;;;;;;;;5030584;28;20196;-60
2023/05/16 03:37:05;;;;;;;3.23;2.63;;;;;;;;;;5030958;28;20202;-60
2023/05/16 03:39:32;;;;;;;2.20;2.00;;;;;;;;;;5010921;28;20199;-60
2023/05/16 03:41:59;;;;;;;2.97;2.50;;;;;;;;;;5026680;28;20733;-59
2023/05/16 03:44:25;;;;;;;3.03;2.70;;;;;;;;;;5031657;28;20195;-59
2023/05/16 03:46:53;;;;;;;2.80;2.60;;;;;;;;;;5030124;28;20204;-59
2023/05/16 03:49:20;;;;;;;2.60;2.33;;;;;;;;;;5031092;28;20582;-59
2023/05/16 03:51:46;;;;;;;3.23;2.93;;;;;;;;;;5028385;28;20191;-60
2023/05/16 03:54:14;;;;;;;3.10;2.73;;;;;;;;;;5008884;28;20271;-59
2023/05/16 03:56:40;;;;;;;4.03;3.20;;;;;;;;;;5022159;28;20191;-59
2023/05/16 03:59:07;;;;;;;3.53;3.23;;;;;;;;;;5028134;28;20546;-59
2023/05/16 04:01:34;;;;;;;4.03;3.33;;;;;;;;;;5029065;28;20184;-59
2023/05/16 04:04:01;;;;;;;3.37;3.07;;;;;;;;;;5030578;28;20274;-60
2023/05/16 04:06:28;;;;;;;3.47;3.17;;;;;;;;;;5029289;28;20528;-59
2023/05/16 04:08:54;;;;;;;3.73;3.00;;;;;;;;;;5029958;28;20195;-59
2023/05/16 04:11:21;;;;;;;3.10;2.80;;;;;;;;;;5030311;28;20271;-60
2023/05/16 04:13:48;;;;;;;3.03;2.77;;;;;;;;;;5029915;28;20847;-59
2023/05/16 04:16:15;;;;;;;4.47;2.87;;;;;;;;;;5027253;28;20647;-59
2023/05/16 04:18:41;;;;;;;3.80;2.47;;;;;;;;;;5029840;28;20198;-59
2023/05/16 04:21:10;;;;;;;2.97;2.40;;;;;;;;;;5027853;28;20211;-60
2023/05/16 04:23:37;;;;;;;2.70;2.50;;;;;;;;;;5029333;28;20618;-60
2023/05/16 04:26:03;;;;;;;2.43;2.23;;;;;;;;;;5029040;28;20195;-59
2023/05/16 04:28:31;;;;;;;3.33;1.70;;;;;;;;;;5027706;28;20199;-60
2023/05/16 04:30:59;;;;;;;2.67;1.27;;;;;;;;;;5029418;28;20195;-60
2023/05/16 04:33:25;;;;;;;1.80;1.50;;;;;;;;;;5040006;28;20207;-61
2023/05/16 04:35:53;;;;;;;1.00;0.80;;;;;;;;;;5021410;28;20874;-60
2023/05/16 04:38:20;;;;;;;0.77;0.73;;;;;;;;;;5045494;28;20183;-59
2023/05/16 04:40:49;;;;;;;1.10;1.00;;;;;;;;;;5028962;28;20314;-61
2023/05/16 04:43:16;;;;;;;1.20;1.00;;;;;;;;;;5028037;28;20195;-60
2023/05/16 04:45:44;;;;;;;1.20;1.10;;;;;;;;;;5026954;28;20552;-60
2023/05/16 04:48:11;;;;;;;1.53;1.43;;;;;;;;;;5024906;28;20198;-60
2023/05/16 04:50:38;;;;;;;1.83;1.70;;;;;;;;;;5012437;28;20199;-60
2023/05/16 04:53:05;;;;;;;2.27;2.07;;;;;;;;;;5031177;28;20215;-60
2023/05/16 04:55:31;;;;;;;2.03;1.83;;;;;;;;;;5027501;28;20196;-60
2023/05/16 04:57:58;;;;;;;2.10;1.83;;;;;;;;;;5024250;28;20203;-60
2023/05/16 05:00:25;;;;;;;2.30;2.10;;;;;;;;;;5032064;28;20229;-60
2023/05/16 05:02:53;;;;;;;2.83;2.10;;;;;;;;;;5014203;28;20239;-60
2023/05/16 05:05:20;;;;;;;1.67;1.50;;;;;;;;;;5031839;28;20544;-60
2023/05/16 05:07:47;;;;;;;2.40;2.20;;;;;;;;;;5013219;28;20195;-60
2023/05/16 05:10:14;;;;;;;2.03;1.70;;;;;;;;;;5029669;28;20204;-60
2023/05/16 05:12:40;;;;;;;1.63;1.53;;;;;;;;;;5034377;28;20601;-60
2023/05/16 05:15:08;;;;;;;1.40;1.30;;;;;;;;;;5033843;28;20186;-60
2023/05/16 05:17:36;;;;;;;1.63;1.53;;;;;;;;;;5023195;28;20203;-60
2023/05/16 05:20:07;;;;;;;1.87;1.70;;;;;;;;;;5032549;28;20199;-60
2023/05/16 05:22:34;;;;;;;1.33;1.23;;;;;;;;;;5030864;28;20194;-60
2023/05/16 05:25:00;;;;;;;1.50;1.40;;;;;;;;;;5030258;28;20258;-60
2023/05/16 05:27:27;;;;;;;2.30;2.00;;;;;;;;;;5020485;28;20188;-61
2023/05/16 05:29:55;;;;;;;2.07;1.87;;;;;;;;;;5031034;28;20245;-60
2023/05/16 05:32:22;;;;;;;2.93;2.17;;;;;;;;;;5030483;28;20218;-60
2023/05/16 05:34:49;;;;;;;1.83;1.70;;;;;;;;;;5028236;28;20524;-60
2023/05/16 05:37:17;;;;;;;2.57;2.20;;;;;;;;;;5035820;28;20227;-60
2023/05/16 05:39:44;;;;;;;3.13;2.20;;;;;;;;;;5024205;28;20304;-60
2023/05/16 05:42:11;;;;;;;2.80;2.33;;;;;;;;;;5017262;28;20644;-60
2023/05/16 05:44:37;;;;;;;3.30;2.53;;;;;;;;;;5025162;28;20199;-60
2023/05/16 05:47:05;;;;;;;3.20;2.80;;;;;;;;;;5028810;28;20195;-60
2023/05/16 05:49:32;;;;;;;3.23;2.77;;;;;;;;;;5027642;28;20195;-60
2023/05/16 05:51:59;;;;;;;4.33;3.13;;;;;;;;;;5026584;28;20231;-60
2023/05/16 05:54:25;;;;;;;2.97;2.40;;;;;;;;;;5044213;28;20306;-60
2023/05/16 05:56:52;;;;;;;3.10;2.80;;;;;;;;;;5041629;28;20215;-60
2023/05/16 05:59:18;;;;;;;2.83;2.53;;;;;;;;;;5028248;28;20191;-60
2023/05/16 06:01:45;;;;;;;4.73;2.37;;;;;;;;;;5011621;28;20866;-59
2023/05/16 06:04:12;;;;;;;2.60;2.03;;;;;;;;;;5029320;28;20291;-60
2023/05/16 06:06:39;;;;;;;2.90;2.07;;;;;;;;;;5029056;28;20195;-60
2023/05/16 06:09:06;;;;;;;2.63;1.80;;;;;;;;;;5028898;28;20195;-60
2023/05/16 06:11:32;;;;;;;3.40;2.10;;;;;;;;;;5011313;28;20215;-60
2023/05/16 06:13:59;;;;;;;2.07;1.83;;;;;;;;;;5028932;28;20211;-59
2023/05/16 06:16:26;;;;;;;2.10;1.90;;;;;;;;;;5029466;28;20560;-60
2023/05/16 06:18:52;;;;;;;2.10;1.90;;;;;;;;;;5028755;28;20196;-60
2023/05/16 06:21:19;;;;;;;2.10;1.90;;;;;;;;;;5029169;28;20187;-60
2023/05/16 06:23:46;;;;;;;2.20;1.90;;;;;;;;;;5028556;28;20188;-60
2023/05/16 06:26:12;;;;;;;2.70;2.17;;;;;;;;;;5028860;28;20199;-60
2023/05/16 06:28:39;;;;;;;2.37;1.87;;;;;;;;;;5028829;28;20242;-61
2023/05/16 06:31:06;;;;;;;2.33;2.13;;;;;;;;;;5029271;28;20306;-60
2023/05/16 06:33:33;;;;;;;2.47;2.10;;;;;;;;;;5028837;28;20215;-60
2023/05/16 06:36:00;;;;;;;2.30;2.10;;;;;;;;;;5028852;28;20179;-60
2023/05/16 06:38:27;;;;;;;2.40;2.17;;;;;;;;;;5028373;28;20214;-60
2023/05/16 06:40:55;;;;;;;2.40;2.20;;;;;;;;;;5028619;28;20202;-60
2023/05/16 06:43:22;;;;;;;2.40;2.17;;;;;;;;;;5029225;28;20666;-60
2023/05/16 06:45:49;;;;;;;3.50;2.47;;;;;;;;;;5010967;28;20195;-60
2023/05/16 06:48:16;;;;;;;2.53;2.30;;;;;;;;;;5028903;28;20259;-60
2023/05/16 06:50:52;;;;;;;2.60;2.10;;;;;;;;;;5010989;28;20203;-60
2023/05/16 06:53:19;;;;;;;4.97;2.70;;;;;;;;;;5011024;28;20218;-60
2023/05/16 06:55:46;;;;;;;3.90;2.20;;;;;;;;;;5028671;28;21117;-60
2023/05/16 06:58:13;;;;;;;2.43;2.00;;;;;;;;;;5031914;28;20237;-60
2023/05/16 07:00:40;;;;;;;1.47;1.20;;;;;;;;;;5032465;28;20198;-60
2023/05/16 07:03:07;;;;;;;2.13;1.70;;;;;;;;;;5033578;28;20190;-59
2023/05/16 07:05:33;;;;;;;2.53;1.60;;;;;;;;;;5033359;28;20577;-60
2023/05/16 07:08:00;;;;;;;1.50;1.30;;;;;;;;;;5032999;28;20195;-60
2023/05/16 07:10:27;;;;;;;1.60;1.50;;;;;;;;;;5032037;28;20554;-60
2023/05/16 07:12:54;;;;;;;1.53;1.40;;;;;;;;;;5032132;28;20219;-60
2023/05/16 07:15:21;;;;;;;1.60;1.43;;;;;;;;;;5031868;28;20218;-60
2023/05/16 07:17:49;;;;;;;1.73;1.43;;;;;;;;;;5031791;28;20602;-60
2023/05/16 07:20:16;;;;;;;2.80;1.63;;;;;;;;;;5032048;28;20238;-60
2023/05/16 07:22:43;;;;;;;2.63;1.80;;;;;;;;;;5031664;28;20187;-60
2023/05/16 07:25:11;;;;;;;2.43;1.70;;;;;;;;;;5029613;28;20234;-60
2023/05/16 07:27:40;;;;;;;2.80;2.37;;;;;;;;;;5032008;28;20219;-61
2023/05/16 07:30:08;;;;;;;2.37;2.17;;;;;;;;;;5013733;28;20710;-60
2023/05/16 07:32:36;;;;;;;8.10;2.70;;;;;;;;;;5031623;28;20196;-61
2023/05/16 07:35:03;;;;;;;3.70;3.33;;;;;;;;;;5030015;28;20270;-60
2023/05/16 07:37:30;;;;;;;4.33;3.87;;;;;;;;;;5032277;28;20207;-60
2023/05/16 07:39:57;;;;;;;6.00;5.23;;;;;;;;;;5032025;28;20581;-60
2023/05/16 07:42:24;;;;;;;7.80;6.17;;;;;;;;;;5031378;28;20200;-60
2023/05/16 07:44:50;;;;;;;7.67;6.10;;;;;;;;;;5031412;28;20215;-60
2023/05/16 07:47:17;;;;;;;8.53;6.37;;;;;;;;;;5031453;28;20191;-60
2023/05/16 07:49:44;;;;;;;8.37;6.00;;;;;;;;;;5031108;28;20662;-59
2023/05/16 07:52:10;;;;;;;8.23;6.03;;;;;;;;;;5031243;28;20199;-60
2023/05/16 07:54:37;;;;;;;5.50;4.60;;;;;;;;;;5031326;28;20223;-59
2023/05/16 07:57:04;;;;;;;5.63;5.03;;;;;;;;;;5031304;28;20210;-59
2023/05/16 07:59:31;;;;;;;5.43;4.93;;;;;;;;;;5013491;28;20261;-59
2023/05/16 08:01:58;;;;;;;6.30;5.30;;;;;;;;;;5030994;28;20250;-59
2023/05/16 08:04:25;;;;;;;6.67;5.97;;;;;;;;;;5030829;28;20200;-59
2023/05/16 08:06:52;;;;;;;6.40;5.53;;;;;;;;;;5030970;28;20188;-60
2023/05/16 08:09:18;;;;;;;7.03;5.60;;;;;;;;;;5029599;28;20188;-61
2023/05/16 08:11:45;;;;;;;6.10;5.50;;;;;;;;;;5030678;28;20190;-61
2023/05/16 08:14:12;;;;;;;7.83;5.60;;;;;;;;;;5030881;28;20311;-60
2023/05/16 08:16:39;;;;;;;6.90;5.27;;;;;;;;;;5030664;28;20195;-60
2023/05/16 08:19:06;;;;;;;6.40;5.10;;;;;;;;;;5030980;28;20203;-60
2023/05/16 08:21:32;;;;;;;4.47;4.07;;;;;;;;;;5030562;28;20614;-60
2023/05/16 08:23:59;;;;;;;5.20;4.10;;;;;;;;;;5030594;28;20756;-60
2023/05/16 08:26:26;;;;;;;3.90;3.50;;;;;;;;;;5030587;28;20222;-60
2023/05/16 08:28:52;;;;;;;3.90;3.50;;;;;;;;;;5012987;28;20311;-60
2023/05/16 08:31:19;;;;;;;3.77;3.47;;;;;;;;;;5030818;28;20658;-61
2023/05/16 08:33:46;;;;;;;3.47;3.17;;;;;;;;;;5030192;28;20207;-60
2023/05/16 08:36:14;;;;;;;3.80;3.40;;;;;;;;;;5030348;28;20262;-61
2023/05/16 08:38:41;;;;;;;3.43;3.13;;;;;;;;;;5030348;28;20257;-60
2023/05/16 08:41:08;;;;;;;3.10;2.80;;;;;;;;;;5030142;28;20250;-61
2023/05/16 08:43:35;;;;;;;3.50;3.20;;;;;;;;;;5012638;28;20192;-60
2023/05/16 08:46:02;;;;;;;4.67;2.77;;;;;;;;;;5030303;28;20180;-61
2023/05/16 08:48:29;;;;;;;5.03;2.97;;;;;;;;;;5012456;28;20221;-60
2023/05/16 08:50:56;;;;;;;3.07;2.77;;;;;;;;;;5012726;28;20191;-60
2023/05/16 08:53:25;;;;;;;4.20;2.93;;;;;;;;;;5029785;28;20210;-60
2023/05/16 08:55:53;;;;;;;2.80;2.60;;;;;;;;;;5029999;28;20196;-62
2023/05/16 08:58:20;;;;;;;4.07;2.73;;;;;;;;;;4996702;28;20651;-61
2023/05/16 09:00:47;;;;;;;2.60;2.40;;;;;;;;;;5030000;28;20184;-61
2023/05/16 09:03:14;;;;;;;2.80;2.50;;;;;;;;;;5029992;28;20199;-61
2023/05/16 09:05:42;;;;;;;4.70;2.37;;;;;;;;;;5029639;28;20773;-60
2023/05/16 09:08:08;;;;;;;2.70;2.50;;;;;;;;;;5029520;28;20195;-60
2023/05/16 09:10:35;;;;;;;3.17;2.37;;;;;;;;;;5029729;28;20207;-60
2023/05/16 09:13:03;;;;;;;2.83;2.57;;;;;;;;;;5030095;28;20202;-60
2023/05/16 09:15:30;;;;;;;3.43;2.60;;;;;;;;;;5029604;28;20274;-60
2023/05/16 09:17:58;;;;;;;3.03;2.70;;;;;;;;;;5029724;28;20626;-61
2023/05/16 09:20:26;;;;;;;2.80;2.60;;;;;;;;;;5012012;28;20290;-59
2023/05/16 09:22:57;;;;;;;3.23;2.40;;;;;;;;;;5029606;28;20187;-59
2023/05/16 09:25:27;;;;;;;2.57;2.13;;;;;;;;;;5029600;28;20239;-60
2023/05/16 09:27:57;;;;;;;2.20;2.00;;;;;;;;;;5029972;28;20590;-59
2023/05/16 09:30:28;;;;;;;2.20;2.00;;;;;;;;;;5029356;28;20238;-60
2023/05/16 09:32:55;;;;;;;2.80;1.90;;;;;;;;;;5029496;28;20191;-59
2023/05/16 09:35:22;;;;;;;2.57;1.83;;;;;;;;;;5029326;28;20208;-60
2023/05/16 09:38:16;;;;;;;3.27;1.90;;;;;;;;;;5029130;28;20649;-60
2023/05/16 09:40:44;;;;;;;2.50;2.30;;;;;;;;;;5029344;28;20224;-60
2023/05/16 09:43:11;;;;;;;2.87;2.30;;;;;;;;;;5029656;28;20192;-60
2023/05/16 09:45:38;;;;;;;3.47;2.63;;;;;;;;;;5011847;28;20543;-60
2023/05/16 09:48:06;;;;;;;2.30;2.10;;;;;;;;;;5029115;28;20249;-60
2023/05/16 09:50:33;;;;;;;2.67;2.33;;;;;;;;;;5029382;28;20214;-59
2023/05/16 09:53:00;;;;;;;3.70;2.20;;;;;;;;;;5028963;28;20195;-60
2023/05/16 09:55:28;;;;;;;2.50;2.30;;;;;;;;;;5029425;28;20210;-59
2023/05/16 09:57:55;;;;;;;3.20;2.53;;;;;;;;;;5029298;28;20612;-59
2023/05/16 10:00:21;;;;;;;3.10;2.70;;;;;;;;;;5029123;28;20972;-59
2023/05/16 10:02:48;;;;;;;2.97;2.70;;;;;;;;;;5011431;28;20192;-59
2023/05/16 10:05:16;;;;;;;3.47;2.57;;;;;;;;;;5028982;28;20184;-60
2023/05/16 10:07:43;;;;;;;3.43;2.87;;;;;;;;;;5028889;28;20221;-60
2023/05/16 10:10:10;;;;;;;3.00;2.70;;;;;;;;;;5011914;28;20191;-59
2023/05/16 10:12:36;;;;;;;3.43;3.00;;;;;;;;;;5029172;28;20258;-59
2023/05/16 10:15:04;;;;;;;4.20;1.97;;;;;;;;;;5028667;28;20242;-61
2023/05/16 10:17:33;;;;;;;5.47;2.83;;;;;;;;;;5009287;28;20224;-60
2023/05/16 10:20:00;;;;;;;3.60;2.80;;;;;;;;;;4991912;28;20246;-60
2023/05/16 10:22:27;;;;;;;4.07;3.30;;;;;;;;;;5009258;28;20203;-59
2023/05/16 10:25:03;;;;;;;4.97;3.63;;;;;;;;;;5009082;28;20230;-60
2023/05/16 10:27:30;;;;;;;3.90;3.50;;;;;;;;;;5009165;28;20276;-59
2023/05/16 10:29:57;;;;;;;3.87;3.43;;;;;;;;;;4992130;28;20703;-59
2023/05/16 10:32:24;;;;;;;4.17;3.23;;;;;;;;;;5010946;28;20212;-59
2023/05/16 10:34:51;;;;;;;4.20;2.90;;;;;;;;;;5012954;28;20215;-59
2023/05/16 10:37:18;;;;;;;5.83;3.50;;;;;;;;;;4995832;28;20192;-59
2023/05/16 10:39:45;;;;;;;5.00;3.80;;;;;;;;;;4995508;28;20202;-59
2023/05/16 10:42:16;;;;;;;5.90;4.13;;;;;;;;;;5012711;28;20247;-60
2023/05/16 10:44:43;;;;;;;5.13;3.17;;;;;;;;;;5012829;28;20203;-59
2023/05/16 10:47:28;;;;;;;4.93;3.50;;;;;;;;;;5012775;28;20226;-59
2023/05/16 10:49:54;;;;;;;4.87;4.10;;;;;;;;;;5012742;28;20247;-60
2023/05/16 10:52:21;;;;;;;4.73;3.57;;;;;;;;;;5012680;28;20202;-60
2023/05/16 10:54:51;;;;;;;4.70;3.97;;;;;;;;;;4994788;28;20224;-59
2023/05/16 10:57:20;;;;;;;5.37;4.40;;;;;;;;;;5012744;28;20636;-59
2023/05/16 10:59:48;;;;;;;5.73;4.87;;;;;;;;;;5012502;28;20195;-60
2023/05/16 11:02:27;;;;;;;9.83;5.90;;;;;;;;;;5012485;28;20207;-60
2023/05/16 11:04:58;;;;;;;6.47;5.00;;;;;;;;;;5012614;28;20192;-61
2023/05/16 11:07:25;;;;;;;7.47;5.50;;;;;;;;;;4995324;28;20192;-60
2023/05/16 11:09:52;;;;;;;6.30;5.47;;;;;;;;;;5012232;28;20211;-60
2023/05/16 11:12:19;;;;;;;7.80;5.57;;;;;;;;;;4994983;28;20203;-60
2023/05/16 11:14:50;;;;;;;7.43;6.20;;;;;;;;;;5012080;28;20244;-60
2023/05/16 11:17:21;;;;;;;7.00;6.10;;;;;;;;;;5030140;28;20199;-60
2023/05/16 11:19:51;;;;;;;7.60;6.77;;;;;;;;;;5032073;28;20203;-60
2023/05/16 11:22:17;;;;;;;8.30;6.83;;;;;;;;;;5032014;28;20685;-60
2023/05/16 11:24:54;;;;;;;12.03;7.17;;;;;;;;;;5031622;28;20232;-60
2023/05/16 11:27:22;;;;;;;8.73;7.93;;;;;;;;;;5031835;28;20230;-60
2023/05/16 11:29:49;;;;;;;10.87;7.73;;;;;;;;;;5031791;28;20301;-59
2023/05/16 11:32:18;;;;;;;10.43;8.43;;;;;;;;;;5031558;28;20191;-59
2023/05/16 11:34:44;;;;;;;11.83;8.63;;;;;;;;;;5031552;28;20222;-60
2023/05/16 11:37:15;;;;;;;13.07;9.53;;;;;;;;;;5014549;28;20199;-60
2023/05/16 11:39:42;;;;;;;11.23;9.10;;;;;;;;;;5031383;28;20286;-60
2023/05/16 11:42:09;;;;;;;12.60;9.03;;;;;;;;;;5031231;28;20199;-60
2023/05/16 11:44:36;;;;;;;13.53;8.70;;;;;;;;;;5031427;28;20246;-60
2023/05/16 11:47:03;;;;;;;13.47;11.07;;;;;;;;;;5013734;28;20187;-59
2023/05/16 11:49:30;;;;;;;13.67;10.43;;;;;;;;;;5014069;28;20238;-59
2023/05/16 11:51:57;;;;;;;13.73;11.23;;;;;;;;;;5031408;28;20191;-59
2023/05/16 11:54:23;;;;;;;17.07;11.67;;;;;;;;;;5030918;28;20570;-60
2023/05/16 11:56:50;;;;;;;15.17;12.20;;;;;;;;;;5031249;28;20192;-60
2023/05/16 11:59:17;;;;;;;16.97;12.03;;;;;;;;;;5031134;28;20206;-60
2023/05/16 12:01:47;;;;;;;16.53;11.60;;;;;;;;;;5013747;28;20651;-59
2023/05/16 12:04:15;;;;;;;19.27;12.60;;;;;;;;;;5031424;28;20231;-59
2023/05/16 12:06:43;;;;;;;17.27;12.80;;;;;;;;;;5030883;28;20191;-59
2023/05/16 12:09:13;;;;;;;17.53;13.57;;;;;;;;;;5013087;28;20196;-59
2023/05/16 12:11:44;;;;;;;16.33;11.87;;;;;;;;;;5013912;28;20180;-60
2023/05/16 12:14:11;;;;;;;16.33;11.80;;;;;;;;;;5030696;28;20219;-59
2023/05/16 12:16:38;;;;;;;17.10;11.77;;;;;;;;;;5000736;28;20601;-59
2023/05/16 12:19:05;;;;;;;17.20;11.37;;;;;;;;;;5009546;28;20224;-60
2023/05/16 12:21:32;;;;;;;18.13;10.47;;;;;;;;;;5026310;28;20188;-59
2023/05/16 12:23:59;;;;;;;12.50;8.97;;;;;;;;;;5009833;28;20216;-59
2023/05/16 12:26:29;;;;;;;14.33;10.37;;;;;;;;;;5032368;28;20195;-59
2023/05/16 12:28:59;;;;;;;16.47;9.47;;;;;;;;;;5032449;28;20191;-59
2023/05/16 12:31:26;;;;;;;12.87;8.80;;;;;;;;;;5032475;28;20242;-60
2023/05/16 12:33:58;;;;;;;10.27;7.83;;;;;;;;;;5031842;28;20275;-60
2023/05/16 12:36:26;;;;;;;11.33;8.43;;;;;;;;;;5031919;28;20203;-60
2023/05/16 12:38:52;;;;;;;11.93;8.97;;;;;;;;;;5031634;28;20191;-60
2023/05/16 12:41:20;;;;;;;14.37;9.47;;;;;;;;;;5031686;28;20196;-59
2023/05/16 12:43:50;;;;;;;13.43;8.60;;;;;;;;;;5031933;28;20195;-60
2023/05/16 12:46:18;;;;;;;14.00;9.87;;;;;;;;;;5032362;28;20659;-59
2023/05/16 12:48:46;;;;;;;13.63;8.93;;;;;;;;;;5031570;28;20524;-60
2023/05/16 12:51:17;;;;;;;9.57;7.33;;;;;;;;;;5031512;28;20270;-59
2023/05/16 12:53:44;;;;;;;11.70;8.03;;;;;;;;;;5031409;28;20227;-60
2023/05/16 12:56:27;;;;;;;10.07;7.37;;;;;;;;;;5031476;28;20188;-60
2023/05/16 12:58:54;;;;;;;13.37;8.43;;;;;;;;;;5031812;28;20500;-60
2023/05/16 13:01:20;;;;;;;13.47;9.73;;;;;;;;;;5032063;28;20281;-60
2023/05/16 13:03:47;;;;;;;13.67;9.53;;;;;;;;;;5031500;28;20223;-60
2023/05/16 13:06:17;;;;;;;15.83;10.13;;;;;;;;;;5031546;28;20206;-59
2023/05/16 13:08:44;;;;;;;19.97;11.30;;;;;;;;;;5017765;28;20932;-60
2023/05/16 13:11:11;;;;;;;18.37;10.77;;;;;;;;;;5031947;28;20187;-60
2023/05/16 13:13:38;;;;;;;15.30;10.37;;;;;;;;;;5031776;28;20195;-60
2023/05/16 13:16:05;;;;;;;17.40;11.00;;;;;;;;;;5031987;28;20310;-60
2023/05/16 13:18:33;;;;;;;16.97;11.33;;;;;;;;;;5031603;28;20183;-60
2023/05/16 13:21:03;;;;;;;17.43;11.47;;;;;;;;;;5031677;28;20266;-60
2023/05/16 13:23:30;;;;;;;20.23;11.77;;;;;;;;;;5031186;28;20195;-60
2023/05/16 13:25:57;;;;;;;18.00;11.53;;;;;;;;;;5030788;28;20216;-60
2023/05/16 13:28:24;;;;;;;18.60;11.13;;;;;;;;;;5031362;28;20274;-60
2023/05/16 13:30:51;;;;;;;17.37;11.23;;;;;;;;;;4999787;28;20283;-59
2023/05/16 13:33:17;;;;;;;18.53;11.23;;;;;;;;;;5031256;28;20191;-60
2023/05/16 13:35:44;;;;;;;18.53;10.87;;;;;;;;;;5031199;28;20269;-59
2023/05/16 13:38:13;;;;;;;15.30;9.50;;;;;;;;;;5030913;28;20195;-60
2023/05/16 13:40:40;;;;;;;12.67;8.50;;;;;;;;;;5030975;28;20191;-60
2023/05/16 13:43:09;;;;;;;13.97;9.10;;;;;;;;;;5030865;28;20747;-60
2023/05/16 13:45:36;;;;;;;15.03;8.10;;;;;;;;;;5030823;28;20202;-60
2023/05/16 13:48:03;;;;;;;16.53;10.57;;;;;;;;;;5031507;28;20230;-60
2023/05/16 13:50:30;;;;;;;16.27;10.57;;;;;;;;;;5031272;28;20270;-60
2023/05/16 13:52:59;;;;;;;14.03;9.37;;;;;;;;;;5030721;28;20289;-60
2023/05/16 13:55:26;;;;;;;13.93;8.83;;;;;;;;;;5030680;28;20214;-60
2023/05/16 13:57:55;;;;;;;16.23;10.60;;;;;;;;;;5030899;28;20189;-60
2023/05/16 14:00:22;;;;;;;15.57;9.30;;;;;;;;;;5031298;28;20550;-60
2023/05/16 14:02:51;;;;;;;15.83;9.50;;;;;;;;;;5031015;28;20528;-60
2023/05/16 14:05:18;;;;;;;16.67;9.33;;;;;;;;;;5031195;28;20187;-60
2023/05/16 14:07:46;;;;;;;17.77;10.20;;;;;;;;;;5033637;28;20226;-60
2023/05/16 14:10:12;;;;;;;14.80;10.30;;;;;;;;;;5035120;28;20183;-60
2023/05/16 14:12:40;;;;;;;17.00;10.70;;;;;;;;;;5035069;28;20196;-60
2023/05/16 14:15:08;;;;;;;19.87;10.83;;;;;;;;;;5034226;28;20211;-61
2023/05/16 14:17:34;;;;;;;21.53;12.23;;;;;;;;;;5034643;28;20199;-60
2023/05/16 14:20:02;;;;;;;20.90;12.20;;;;;;;;;;5034369;28;20187;-60
2023/05/16 14:22:31;;;;;;;16.80;9.97;;;;;;;;;;5034819;28;20268;-60
2023/05/16 14:24:58;;;;;;;19.80;11.37;;;;;;;;;;5034594;28;20258;-60
2023/05/16 14:27:25;;;;;;;16.30;11.30;;;;;;;;;;5034326;28;20192;-60
2023/05/16 14:29:51;;;;;;;16.47;11.07;;;;;;;;;;5033939;28;20554;-60
2023/05/16 14:32:18;;;;;;;16.67;10.57;;;;;;;;;;5016592;28;20253;-60
2023/05/16 14:34:45;;;;;;;13.83;9.77;;;;;;;;;;5034482;28;20237;-60
2023/05/16 14:37:14;;;;;;;16.13;11.10;;;;;;;;;;5035108;28;20222;-59
2023/05/16 14:39:43;;;;;;;15.80;8.13;;;;;;;;;;5034514;28;20199;-60
2023/05/16 14:42:11;;;;;;;17.33;10.30;;;;;;;;;;5034108;28;20261;-60
2023/05/16 14:44:38;;;;;;;13.10;7.60;;;;;;;;;;5033798;28;20195;-59
2023/05/16 14:47:05;;;;;;;13.43;7.93;;;;;;;;;;5034337;28;20192;-60
2023/05/16 14:49:32;;;;;;;17.20;10.23;;;;;;;;;;5034243;28;20190;-61
2023/05/16 14:51:58;;;;;;;14.07;9.37;;;;;;;;;;5034737;28;20546;-60
2023/05/16 14:54:25;;;;;;;15.30;9.83;;;;;;;;;;5034054;28;20271;-61
2023/05/16 14:56:52;;;;;;;16.00;7.73;;;;;;;;;;5034182;28;20215;-60
2023/05/16 14:59:18;;;;;;;15.27;8.70;;;;;;;;;;5034005;28;20213;-61
2023/05/16 15:01:45;;;;;;;13.17;8.90;;;;;;;;;;5034311;28;20202;-60
2023/05/16 15:04:12;;;;;;;14.33;8.87;;;;;;;;;;5034019;28;20199;-60
2023/05/16 15:06:39;;;;;;;13.93;9.07;;;;;;;;;;5016007;28;20770;-60
2023/05/16 15:09:06;;;;;;;12.63;9.23;;;;;;;;;;5033459;28;20199;-61
2023/05/16 15:11:34;;;;;;;15.37;8.40;;;;;;;;;;5033770;28;20187;-61
2023/05/16 15:14:01;;;;;;;12.67;8.60;;;;;;;;;;5034181;28;20245;-60